createdAt,value
2023-05-15T00:02:20.532Z,100543.38
2023-05-15T00:04:47.889Z,100540.22
2023-05-15T00:07:15.291Z,100532.50
2023-05-15T00:09:42.597Z,100527.44
2023-05-15T00:12:10.010Z,100531.00
2023-05-15T00:14:37.185Z,100521.53
2023-05-15T00:17:04.373Z,100523.31
2023-05-15T00:19:31.731Z,100520.03
2023-05-15T00:21:58.912Z,100509.78
2023-05-15T00:24:26.130Z,100507.16
2023-05-15T00:26:53.338Z,100509.78
2023-05-15T00:29:20.581Z,100504.50
2023-05-15T00:31:47.882Z,100504.59
2023-05-15T00:34:15.134Z,100500.28
2023-05-15T00:36:42.318Z,100499.63
2023-05-15T00:39:09.666Z,100497.94
2023-05-15T00:41:37.518Z,100493.81
2023-05-15T00:44:05.263Z,100491.50
2023-05-15T00:46:33.052Z,100482.00
2023-05-15T00:49:00.816Z,100475.13
2023-05-15T00:51:28.019Z,100478.72
2023-05-15T00:53:56.829Z,100472.81
2023-05-15T00:56:24.867Z,100465.84
2023-05-15T00:58:52.387Z,100465.09
2023-05-15T01:01:19.763Z,100466.88
2023-05-15T01:03:46.989Z,100462.56
2023-05-15T01:06:14.241Z,100460.13
2023-05-15T01:08:46.812Z,100447.03
2023-05-15T01:11:15.425Z,100456.00
2023-05-15T01:13:43.252Z,100453.53
2023-05-15T01:16:10.963Z,100456.28
2023-05-15T01:18:38.301Z,100453.84
2023-05-15T01:21:27.225Z,100446.97
2023-05-15T01:23:57.504Z,100441.16
2023-05-15T01:26:46.404Z,100438.72
2023-05-15T01:29:21.871Z,100445.91
2023-05-15T01:31:59.072Z,100449.56
2023-05-15T01:34:32.544Z,100450.75
2023-05-15T01:37:03.405Z,100450.09
2023-05-15T01:39:33.282Z,100449.56
2023-05-15T01:42:09.459Z,100455.00
2023-05-15T01:44:39.344Z,100450.69
2023-05-15T01:47:14.109Z,100451.53
2023-05-15T01:49:43.220Z,100453.41
2023-05-15T01:52:34.003Z,100446.66
2023-05-15T01:55:05.042Z,100439.81
2023-05-15T01:57:33.239Z,100430.00
2023-05-15T02:00:01.135Z,100433.59
2023-05-15T02:02:28.889Z,100430.94
2023-05-15T02:04:56.938Z,100423.03
2023-05-15T02:07:25.167Z,100431.78
2023-05-15T02:09:52.815Z,100430.28
2023-05-15T02:12:21.152Z,100428.50
2023-05-15T02:14:49.752Z,100416.28
2023-05-15T02:17:17.144Z,100419.03
2023-05-15T02:19:44.383Z,100414.78
2023-05-15T02:22:11.686Z,100409.63
2023-05-15T02:24:39.184Z,100405.19
2023-05-15T02:27:17.858Z,100408.66
2023-05-15T02:30:06.548Z,100404.16
2023-05-15T02:32:47.396Z,100409.50
2023-05-15T02:35:20.635Z,100405.31
2023-05-15T02:37:50.654Z,100406.16
2023-05-15T02:40:19.668Z,100399.91
2023-05-15T02:42:47.477Z,100402.56
2023-05-15T02:45:14.959Z,100393.69
2023-05-15T02:47:42.745Z,100390.22
2023-05-15T02:50:10.578Z,100396.34
2023-05-15T02:52:37.891Z,100382.31
2023-05-15T02:55:06.301Z,100390.22
2023-05-15T02:57:34.098Z,100382.44
2023-05-15T03:00:01.484Z,100374.41
2023-05-15T03:02:28.758Z,100381.28
2023-05-15T03:04:56.082Z,100380.34
2023-05-15T03:07:23.364Z,100383.81
2023-05-15T03:09:50.560Z,100368.00
2023-05-15T03:12:17.772Z,100376.84
2023-05-15T03:14:44.990Z,100372.63
2023-05-15T03:17:12.379Z,100366.50
2023-05-15T03:19:39.711Z,100365.78
2023-05-15T03:22:07.282Z,100370.28
2023-05-15T03:24:34.563Z,100364.28
2023-05-15T03:27:01.856Z,100364.38
2023-05-15T03:29:29.367Z,100360.06
2023-05-15T03:31:56.996Z,100359.31
2023-05-15T03:34:24.246Z,100352.25
2023-05-15T03:36:51.504Z,100349.72
2023-05-15T03:39:18.781Z,100350.56
2023-05-15T03:41:45.972Z,100351.31
2023-05-15T03:44:13.328Z,100350.47
2023-05-15T03:46:40.632Z,100349.63
2023-05-15T03:49:08.000Z,100342.66
2023-05-15T03:51:35.410Z,100347.81
2023-05-15T03:54:05.182Z,100348.56
2023-05-15T03:56:33.038Z,100350.28
2023-05-15T03:59:00.282Z,100343.94
2023-05-15T04:01:27.490Z,100350.88
2023-05-15T04:03:54.724Z,100346.50
2023-05-15T04:06:22.917Z,100353.44
2023-05-15T04:08:50.406Z,100350.69
2023-05-15T04:11:17.682Z,100353.44
2023-05-15T04:13:44.950Z,100347.22
2023-05-15T04:16:12.309Z,100347.97
2023-05-15T04:18:39.583Z,100339.31
2023-05-15T04:21:09.572Z,100342.06
2023-05-15T04:23:36.806Z,100339.44
2023-05-15T04:26:04.061Z,100338.59
2023-05-15T04:28:32.407Z,100340.28
2023-05-15T04:30:59.936Z,100344.47
2023-05-15T04:33:27.213Z,100340.91
2023-05-15T04:35:54.391Z,100340.06
2023-05-15T04:38:21.581Z,100339.84
2023-05-15T04:40:49.314Z,100338.72
2023-05-15T04:43:16.600Z,100347.16
2023-05-15T04:45:43.943Z,100341.56
2023-05-15T04:48:11.201Z,100337.78
2023-05-15T04:50:38.415Z,100343.69
2023-05-15T04:53:15.175Z,100339.16
2023-05-15T04:55:42.532Z,100339.91
2023-05-15T04:58:09.932Z,100331.69
2023-05-15T05:00:37.139Z,100332.03
2023-05-15T05:03:04.929Z,100328.75
2023-05-15T05:05:32.199Z,100328.16
2023-05-15T05:07:59.424Z,100330.03
2023-05-15T05:10:27.230Z,100322.31
2023-05-15T05:12:55.385Z,100318.84
2023-05-15T05:15:22.750Z,100324.22
2023-05-15T05:17:50.101Z,100319.97
2023-05-15T05:20:17.607Z,100320.13
2023-05-15T05:22:44.956Z,100308.78
2023-05-15T05:25:12.182Z,100310.44
2023-05-15T05:27:39.484Z,100305.22
2023-05-15T05:30:07.403Z,100305.16
2023-05-15T05:32:34.711Z,100296.28
2023-05-15T05:35:02.081Z,100298.16
2023-05-15T05:37:29.434Z,100299.91
2023-05-15T05:39:56.787Z,100294.03
2023-05-15T05:42:24.019Z,100289.84
2023-05-15T05:44:51.371Z,100296.97
2023-05-15T05:47:18.594Z,100291.44
2023-05-15T05:49:48.259Z,100290.47
2023-05-15T05:52:16.764Z,100299.28
2023-05-15T05:54:49.953Z,100293.97
2023-05-15T05:57:17.538Z,100292.16
2023-05-15T05:59:45.881Z,100285.91
2023-05-15T06:02:13.484Z,100284.81
2023-05-15T06:04:41.296Z,100281.22
2023-05-15T06:07:08.884Z,100279.31
2023-05-15T06:09:36.332Z,100279.06
2023-05-15T06:12:08.301Z,100277.97
2023-05-15T06:14:36.116Z,100276.78
2023-05-15T06:17:03.756Z,100273.78
2023-05-15T06:19:31.541Z,100276.78
2023-05-15T06:21:58.820Z,100270.31
2023-05-15T06:24:26.120Z,100269.81
2023-05-15T06:26:53.469Z,100264.84
2023-05-15T06:29:21.760Z,100263.28
2023-05-15T06:31:48.995Z,100252.81
2023-05-15T06:34:16.333Z,100255.56
2023-05-15T06:36:43.534Z,100258.09
2023-05-15T06:39:10.983Z,100253.50
2023-05-15T06:41:38.590Z,100260.41
2023-05-15T06:44:06.325Z,100251.31
2023-05-15T06:46:33.868Z,100256.59
2023-05-15T06:49:01.236Z,100246.75
2023-05-15T06:51:28.491Z,100262.22
2023-05-15T06:53:55.744Z,100251.28
2023-05-15T06:56:23.011Z,100245.63
2023-05-15T06:58:50.178Z,100248.13
2023-05-15T07:01:17.392Z,100254.88
2023-05-15T07:03:44.669Z,100253.69
2023-05-15T07:06:11.848Z,100249.13
2023-05-15T07:08:39.072Z,100245.09
2023-05-15T07:11:06.326Z,100242.47
2023-05-15T07:13:33.510Z,100240.44
2023-05-15T07:16:00.774Z,100239.91
2023-05-15T07:18:28.064Z,100240.03
2023-05-15T07:20:55.426Z,100242.66
2023-05-15T07:23:23.474Z,100238.84
2023-05-15T07:25:52.644Z,100236.00
2023-05-15T07:28:20.148Z,100227.41
2023-05-15T07:30:47.331Z,100227.78
2023-05-15T07:33:14.605Z,100227.56
2023-05-15T07:35:41.777Z,100220.50
2023-05-15T07:38:09.080Z,100229.88
2023-05-15T07:40:36.304Z,100227.06
2023-05-15T07:43:03.576Z,100223.28
2023-05-15T07:45:30.862Z,100226.31
2023-05-15T07:47:58.844Z,100223.22
2023-05-15T07:50:26.179Z,100216.22
2023-05-15T07:52:53.496Z,100210.59
2023-05-15T07:55:20.730Z,100218.25
2023-05-15T07:57:53.379Z,100211.44
2023-05-15T08:00:22.557Z,100205.25
2023-05-15T08:02:49.888Z,100205.94
2023-05-15T08:05:17.301Z,100202.66
2023-05-15T08:07:45.509Z,100198.13
2023-05-15T08:10:13.468Z,100199.53
2023-05-15T08:12:46.225Z,100191.34
2023-05-15T08:15:13.826Z,100193.31
2023-05-15T08:17:41.436Z,100188.75
2023-05-15T08:20:09.721Z,100187.94
2023-05-15T08:22:36.896Z,100188.16
2023-05-15T08:25:05.932Z,100187.16
2023-05-15T08:27:33.130Z,100188.31
2023-05-15T08:30:00.453Z,100191.66
2023-05-15T08:32:27.905Z,100183.84
2023-05-15T08:34:55.168Z,100178.34
2023-05-15T08:37:22.302Z,100174.31
2023-05-15T08:39:49.553Z,100174.94
2023-05-15T08:42:35.908Z,100171.03
2023-05-15T08:45:03.272Z,100170.00
2023-05-15T08:47:32.970Z,100167.81
2023-05-15T08:50:07.205Z,100162.16
2023-05-15T08:52:34.829Z,100158.16
2023-05-15T08:55:02.625Z,100153.25
2023-05-15T08:57:30.144Z,100155.91
2023-05-15T08:59:57.915Z,100159.25
2023-05-15T09:02:45.307Z,100149.44
2023-05-15T09:05:12.773Z,100152.09
2023-05-15T09:07:41.737Z,100147.06
2023-05-15T09:10:09.897Z,100151.25
2023-05-15T09:12:42.672Z,100144.94
2023-05-15T09:15:18.030Z,100143.94
2023-05-15T09:17:46.098Z,100144.50
2023-05-15T09:20:34.384Z,100136.38
2023-05-15T09:23:04.517Z,100134.53
2023-05-15T09:25:47.106Z,100134.19
2023-05-15T09:28:31.566Z,100127.00
2023-05-15T09:31:03.887Z,100129.94
2023-05-15T09:33:36.308Z,100123.59
2023-05-15T09:36:04.816Z,100129.09
2023-05-15T09:38:41.879Z,100131.97
2023-05-15T09:41:09.657Z,100133.38
2023-05-15T09:43:38.379Z,100128.63
2023-05-15T09:46:06.538Z,100129.19
2023-05-15T09:48:34.772Z,100133.91
2023-05-15T09:51:02.236Z,100136.28
2023-05-15T09:53:30.516Z,100133.50
2023-05-15T09:55:58.301Z,100136.06
2023-05-15T09:58:29.417Z,100136.94
2023-05-15T10:00:59.765Z,100127.47
2023-05-15T10:03:26.879Z,100129.81
2023-05-15T10:06:01.356Z,100131.00
2023-05-15T10:08:29.206Z,100137.03
2023-05-15T10:10:59.923Z,100127.84
2023-05-15T10:13:28.109Z,100126.50
2023-05-15T10:15:59.989Z,100127.84
2023-05-15T10:18:28.811Z,100122.22
2023-05-15T10:20:58.613Z,100128.41
2023-05-15T10:23:34.039Z,100127.56
2023-05-15T10:26:04.766Z,100125.09
2023-05-15T10:28:33.672Z,100129.22
2023-05-15T10:31:05.477Z,100125.06
2023-05-15T10:33:34.186Z,100121.38
2023-05-15T10:36:20.043Z,100122.03
2023-05-15T10:38:51.308Z,100119.22
2023-05-15T10:41:21.202Z,100114.50
2023-05-15T10:43:53.902Z,100104.47
2023-05-15T10:46:22.465Z,100095.06
2023-05-15T10:48:51.819Z,100099.47
2023-05-15T10:51:32.960Z,100101.13
2023-05-15T10:54:03.680Z,100090.28
2023-05-15T10:56:32.846Z,100087.09
2023-05-15T10:59:11.128Z,100079.13
2023-05-15T11:01:40.009Z,100081.84
2023-05-15T11:04:17.127Z,100081.00
2023-05-15T11:06:49.376Z,100073.72
2023-05-15T11:09:22.804Z,100071.59
2023-05-15T11:12:00.727Z,100074.19
2023-05-15T11:14:29.882Z,100064.41
2023-05-15T11:16:58.050Z,100064.75
2023-05-15T11:19:28.360Z,100067.28
2023-05-15T11:22:06.200Z,100063.25
2023-05-15T11:24:48.312Z,100061.03
2023-05-15T11:27:21.277Z,100066.69
2023-05-15T11:30:11.741Z,100065.13
2023-05-15T11:32:51.900Z,100055.50
2023-05-15T11:35:38.002Z,100056.38
2023-05-15T11:38:11.665Z,100055.19
2023-05-15T11:40:50.412Z,100054.41
2023-05-15T11:43:36.395Z,100053.16
2023-05-15T11:46:03.916Z,100055.84
2023-05-15T11:48:35.956Z,100053.91
2023-05-15T11:51:04.312Z,100034.34
2023-05-15T11:53:33.594Z,100038.53
2023-05-15T11:56:01.076Z,100030.72
2023-05-15T12:02:46.460Z,100029.25
2023-05-15T12:05:13.729Z,100035.72
2023-05-15T12:07:42.953Z,100018.13
2023-05-15T12:10:13.691Z,100024.31
2023-05-15T12:12:42.302Z,100021.00
2023-05-15T12:15:11.237Z,100014.38
2023-05-15T12:17:39.987Z,100005.59
2023-05-15T12:20:18.034Z,100011.00
2023-05-15T12:22:45.712Z,100013.91
2023-05-15T12:25:14.953Z,100002.31
2023-05-15T12:27:43.522Z,100004.41
2023-05-15T12:30:11.305Z,99999.22
2023-05-15T12:32:39.168Z,100000.50
2023-05-15T12:35:06.651Z,100006.00
2023-05-15T12:37:36.193Z,99995.44
2023-05-15T12:40:12.268Z,99999.69
2023-05-15T12:46:58.621Z,99989.81
2023-05-15T12:49:25.855Z,99990.19
2023-05-15T12:51:53.198Z,99984.13
2023-05-15T12:54:20.834Z,99984.97
2023-05-15T12:56:48.584Z,99985.69
2023-05-15T12:59:15.823Z,99983.56
2023-05-15T13:01:43.219Z,99986.44
2023-05-15T13:04:11.023Z,99980.25
2023-05-15T13:06:46.231Z,99978.34
2023-05-15T13:09:14.275Z,99969.88
2023-05-15T13:11:45.153Z,99966.06
2023-05-15T13:14:17.374Z,99966.69
2023-05-15T13:16:46.621Z,99964.34
2023-05-15T13:19:14.449Z,99974.41
2023-05-15T13:21:41.755Z,99967.84
2023-05-15T13:24:10.700Z,99964.16
2023-05-15T13:26:37.988Z,99963.34
2023-05-15T13:29:05.224Z,99973.06
2023-05-15T13:31:32.587Z,99971.22
2023-05-15T13:33:59.763Z,99971.34
2023-05-15T13:36:27.004Z,99997.84
2023-05-15T13:38:54.263Z,100006.56
2023-05-15T13:41:22.479Z,100010.91
2023-05-15T13:43:49.757Z,100004.34
2023-05-15T13:46:17.067Z,100007.66
2023-05-15T13:48:44.400Z,100017.00
2023-05-15T13:51:11.640Z,100027.72
2023-05-15T13:53:39.205Z,100022.16
2023-05-15T13:56:06.579Z,100034.50
2023-05-15T13:58:33.896Z,100048.69
2023-05-15T14:01:04.805Z,100049.91
2023-05-15T14:03:34.455Z,100056.88
2023-05-15T14:06:02.022Z,100067.41
2023-05-15T14:08:29.240Z,100070.03
2023-05-15T14:10:56.448Z,100074.69
2023-05-15T14:13:24.699Z,100072.91
2023-05-15T14:15:52.570Z,100064.66
2023-05-15T14:18:19.908Z,100059.50
2023-05-15T14:20:47.065Z,100052.78
2023-05-15T14:23:14.332Z,100064.63
2023-05-15T14:25:44.369Z,100059.63
2023-05-15T14:28:12.867Z,100053.03
2023-05-15T14:30:41.477Z,100043.81
2023-05-15T14:33:08.785Z,100049.84
2023-05-15T14:35:36.730Z,100047.19
2023-05-15T14:38:05.193Z,100042.16
2023-05-15T14:40:32.660Z,100044.53
2023-05-15T14:42:59.912Z,100041.63
2023-05-15T14:45:27.543Z,100034.50
2023-05-15T14:47:54.984Z,100027.16
2023-05-15T14:50:22.349Z,100022.81
2023-05-15T14:52:49.680Z,100028.50
2023-05-15T14:55:22.097Z,100021.59
2023-05-15T14:57:50.389Z,100021.50
2023-05-15T15:00:18.058Z,100021.75
2023-05-15T15:02:46.286Z,100019.69
2023-05-15T15:05:13.781Z,100021.84
2023-05-15T15:08:03.571Z,100023.03
2023-05-15T15:10:33.890Z,100017.28
2023-05-15T15:13:01.585Z,100018.75
2023-05-15T15:15:30.532Z,100023.84
2023-05-15T15:17:58.262Z,100020.50
2023-05-15T15:20:27.504Z,100023.09
2023-05-15T15:22:55.438Z,100018.31
2023-05-15T15:25:22.938Z,100017.72
2023-05-15T15:27:50.891Z,100009.28
2023-05-15T15:30:18.453Z,100015.41
2023-05-15T15:32:45.891Z,100016.72
2023-05-15T15:35:13.288Z,100008.69
2023-05-15T15:37:41.051Z,100003.78
2023-05-15T15:40:08.746Z,100007.31
2023-05-15T15:42:35.929Z,99995.50
2023-05-15T15:45:03.498Z,99995.28
2023-05-15T15:47:32.171Z,100000.22
2023-05-15T15:50:00.182Z,99986.00
2023-05-15T15:52:28.055Z,99985.88
2023-05-15T15:54:55.410Z,99978.06
2023-05-15T15:57:22.681Z,99977.09
2023-05-15T15:59:50.017Z,99973.50
2023-05-15T16:02:17.533Z,99980.25
2023-05-15T16:04:44.961Z,99977.66
2023-05-15T16:07:12.205Z,99981.56
2023-05-15T16:09:39.397Z,99976.72
2023-05-15T16:12:06.691Z,99974.06
2023-05-15T16:14:34.272Z,99979.38
2023-05-15T16:17:04.032Z,99982.38
2023-05-15T16:19:31.363Z,99979.47
2023-05-15T16:21:58.972Z,99985.59
2023-05-15T16:24:26.487Z,99983.03
2023-05-15T16:26:53.722Z,99978.13
2023-05-15T16:29:21.146Z,99984.78
2023-05-15T16:31:48.493Z,99989.72
2023-05-15T16:34:15.893Z,99989.56
2023-05-15T16:36:43.090Z,99993.81
2023-05-15T16:39:10.301Z,99994.97
2023-05-15T16:41:37.530Z,99999.78
2023-05-15T16:44:10.727Z,99990.84
2023-05-15T16:46:38.648Z,99997.06
2023-05-15T16:49:07.272Z,99994.53
2023-05-15T16:51:35.386Z,100004.75
2023-05-15T16:54:02.695Z,100012.38
2023-05-15T16:56:30.529Z,100014.78
2023-05-15T16:58:59.128Z,100008.63
2023-05-15T17:01:29.349Z,100010.25
2023-05-15T17:03:56.764Z,100010.06
2023-05-15T17:06:24.035Z,100005.25
2023-05-15T17:08:51.303Z,99989.88
2023-05-15T17:11:18.639Z,100001.50
2023-05-15T17:13:46.118Z,100000.16
2023-05-15T17:16:13.435Z,100004.38
2023-05-15T17:18:43.042Z,100010.16
2023-05-15T17:21:10.953Z,100015.78
2023-05-15T17:23:38.097Z,100013.44
2023-05-15T17:26:05.345Z,100009.22
2023-05-15T17:28:32.642Z,100012.72
2023-05-15T17:31:00.404Z,100015.81
2023-05-15T17:33:27.812Z,100018.03
2023-05-15T17:35:56.006Z,100022.75
2023-05-15T17:38:23.365Z,100023.75
2023-05-15T17:43:55.439Z,100018.75
2023-05-15T17:46:23.003Z,100014.34
2023-05-15T17:48:50.496Z,100022.25
2023-05-15T17:51:17.911Z,100018.03
2023-05-15T17:53:45.262Z,100022.97
2023-05-15T17:56:12.681Z,100021.59
2023-05-15T17:58:40.272Z,100027.50
2023-05-15T18:01:07.497Z,100026.81
2023-05-15T18:03:34.904Z,100024.00
2023-05-15T18:06:04.089Z,100025.00
2023-05-15T18:08:31.286Z,100027.09
2023-05-15T18:11:04.183Z,100028.34
2023-05-15T18:13:38.599Z,100031.81
2023-05-15T18:16:06.718Z,100032.97
2023-05-15T18:18:34.789Z,100027.25
2023-05-15T18:21:02.390Z,100035.94
2023-05-15T18:23:29.570Z,100025.31
2023-05-15T18:25:56.823Z,100033.00
2023-05-15T18:28:24.083Z,100029.94
2023-05-15T18:30:51.295Z,100029.53
2023-05-15T18:33:18.547Z,100035.00
2023-05-15T18:35:45.902Z,100036.69
2023-05-15T18:38:14.322Z,100036.28
2023-05-15T18:40:41.848Z,100041.44
2023-05-15T18:43:09.302Z,100033.22
2023-05-15T18:45:36.571Z,100035.28
2023-05-15T18:48:04.139Z,100031.81
2023-05-15T18:50:31.545Z,100028.31
2023-05-15T18:52:59.082Z,100032.06
2023-05-15T18:55:27.561Z,100027.88
2023-05-15T18:57:54.903Z,100035.97
2023-05-15T19:00:33.934Z,100037.09
2023-05-15T19:03:05.757Z,100029.13
2023-05-15T19:05:34.322Z,100025.78
2023-05-15T19:08:01.879Z,100030.41
2023-05-15T19:10:29.484Z,100037.50
2023-05-15T19:12:57.885Z,100042.97
2023-05-15T19:15:25.742Z,100041.72
2023-05-15T19:17:53.242Z,100040.16
2023-05-15T19:20:20.976Z,100043.09
2023-05-15T19:22:48.127Z,100043.22
2023-05-15T19:25:15.651Z,100041.69
2023-05-15T19:27:42.977Z,100052.47
2023-05-15T19:30:11.145Z,100064.75
2023-05-15T19:32:38.748Z,100069.22
2023-05-15T19:35:06.363Z,100072.28
2023-05-15T19:37:33.592Z,100072.28
2023-05-15T19:40:00.904Z,100064.59
2023-05-15T19:42:28.129Z,100076.16
2023-05-15T19:44:55.453Z,100077.66
2023-05-15T19:47:22.854Z,100072.06
2023-05-15T19:49:50.215Z,100071.50
2023-05-15T19:52:19.414Z,100079.41
2023-05-15T19:54:46.777Z,100081.06
2023-05-15T19:57:15.329Z,100078.78
2023-05-15T19:59:42.503Z,100082.66
2023-05-15T20:02:11.162Z,100083.16
2023-05-15T20:04:38.426Z,100082.16
2023-05-15T20:07:05.660Z,100083.13
2023-05-15T20:09:33.212Z,100095.09
2023-05-15T20:12:01.069Z,100098.97
2023-05-15T20:14:28.320Z,100105.50
2023-05-15T20:16:55.460Z,100097.13
2023-05-15T20:19:24.730Z,100094.00
2023-05-15T20:21:53.325Z,100095.00
2023-05-15T20:24:25.568Z,100096.06
2023-05-15T20:26:53.065Z,100100.78
2023-05-15T20:29:20.316Z,100109.97
2023-05-15T20:31:47.603Z,100102.41
2023-05-15T20:34:14.966Z,100104.94
2023-05-15T20:36:42.512Z,100109.50
2023-05-15T20:39:10.618Z,100105.88
2023-05-15T20:41:37.850Z,100107.84
2023-05-15T20:44:05.155Z,100106.03
2023-05-15T20:46:33.152Z,100102.41
2023-05-15T20:49:00.556Z,100112.44
2023-05-15T20:51:27.739Z,100103.22
2023-05-15T20:53:54.981Z,100108.81
2023-05-15T20:56:22.215Z,100111.47
2023-05-15T20:58:49.405Z,100100.97
2023-05-15T21:01:16.603Z,100104.47
2023-05-15T21:03:44.355Z,100101.09
2023-05-15T21:06:11.586Z,100100.97
2023-05-15T21:08:38.872Z,100093.75
2023-05-15T21:11:06.066Z,100109.50
2023-05-15T21:13:33.274Z,100085.22
2023-05-15T21:16:00.550Z,100105.22
2023-05-15T21:18:27.788Z,100102.69
2023-05-15T21:20:55.013Z,100110.91
2023-05-15T21:23:22.341Z,100102.69
2023-05-15T21:25:49.530Z,100106.56
2023-05-15T21:28:16.846Z,100102.22
2023-05-15T21:30:44.355Z,100098.28
2023-05-15T21:33:11.761Z,100100.19
2023-05-15T21:35:39.782Z,100107.22
2023-05-15T21:38:07.074Z,100104.41
2023-05-15T21:40:34.572Z,100113.44
2023-05-15T21:43:01.843Z,100108.88
2023-05-15T21:45:29.949Z,100106.22
2023-05-15T21:47:57.337Z,100118.63
2023-05-15T21:50:26.614Z,100110.56
2023-05-15T21:52:54.010Z,100113.44
2023-05-15T21:55:21.246Z,100109.84
2023-05-15T21:57:48.434Z,100125.75
2023-05-15T22:00:16.306Z,100124.16
2023-05-15T22:03:08.474Z,100112.38
2023-05-15T22:05:36.010Z,100114.03
2023-05-15T22:08:28.456Z,100117.19
2023-05-15T22:10:55.756Z,100119.94
2023-05-15T22:13:23.658Z,100121.75
2023-05-15T22:23:13.618Z,100136.94
2023-05-15T22:25:44.180Z,100130.81
2023-05-15T22:28:11.533Z,100130.09
2023-05-15T22:30:38.704Z,100133.47
2023-05-15T22:33:06.033Z,100130.09
2023-05-15T22:35:33.243Z,100131.88
2023-05-15T22:38:00.490Z,100135.13
2023-05-15T22:40:28.056Z,100128.88
2023-05-15T22:42:55.441Z,100132.34
2023-05-15T22:45:22.617Z,100133.31
2023-05-15T22:47:49.840Z,100133.69
2023-05-15T22:50:18.424Z,100139.25
2023-05-15T22:52:45.842Z,100143.59
2023-05-15T22:55:13.136Z,100151.63
2023-05-15T22:57:40.471Z,100147.31
2023-05-15T23:00:08.117Z,100160.78
2023-05-15T23:02:37.425Z,100164.28
2023-05-15T23:05:05.049Z,100162.88
2023-05-15T23:07:32.340Z,100161.53
2023-05-15T23:09:59.577Z,100167.94
2023-05-15T23:12:26.849Z,100166.97
2023-05-15T23:14:54.094Z,100160.38
2023-05-15T23:17:21.384Z,100166.34
2023-05-15T23:19:48.756Z,100163.09
2023-05-15T23:22:16.032Z,100164.69
2023-05-15T23:24:43.197Z,100164.06
2023-05-15T23:27:10.411Z,100163.38
2023-05-15T23:29:37.633Z,100167.47
2023-05-15T23:32:05.384Z,100161.56
2023-05-15T23:34:32.500Z,100169.63
2023-05-15T23:36:59.865Z,100170.00
2023-05-15T23:39:27.170Z,100170.38
2023-05-15T23:41:54.515Z,100170.03
2023-05-15T23:44:21.761Z,100163.38
2023-05-15T23:46:49.172Z,100168.19
2023-05-15T23:49:16.537Z,100174.59
2023-05-15T23:51:44.144Z,100171.34
2023-05-15T23:54:11.703Z,100165.31
2023-05-15T23:56:46.537Z,100168.78
2023-05-15T23:59:13.906Z,100164.47
